Time;durP1;ratioP1;P1;durP2;ratioP2;P2;SDS_P1;SDS_P2;PMS_P1;PMS_P2;Temp;Humidity;BMP_temperature;BMP_pressure;BME280_temperature;BME280_humidity;BME280_pressure;Samples;Min_cycle;Max_cycle;Signal;HPM_P1;HPM_P2
2021/08/12 00:00:50;;;;;;;20.70;18.70;;;14.60;99.90;;;;;;5035792;28;20231;-59
2021/08/12 00:03:15;;;;;;;20.93;19.07;;;14.60;99.90;;;;;;5030781;28;20214;-59
2021/08/12 00:05:41;;;;;;;21.93;19.83;;;14.60;99.90;;;;;;5028267;28;20183;-59
2021/08/12 00:08:06;;;;;;;21.23;19.33;;;14.60;99.90;;;;;;5024633;28;20179;-59
2021/08/12 00:10:32;;;;;;;21.17;19.00;;;14.60;99.90;;;;;;5029470;28;20545;-61
2021/08/12 00:12:57;;;;;;;21.13;19.23;;;14.50;99.90;;;;;;5030903;28;20183;-59
2021/08/12 00:15:23;;;;;;;20.07;18.27;;;14.50;99.90;;;;;;5028918;28;20504;-61
2021/08/12 00:17:49;;;;;;;22.30;20.23;;;14.50;99.90;;;;;;5027782;28;20187;-59
2021/08/12 00:20:15;;;;;;;21.07;19.17;;;14.50;99.90;;;;;;5030309;28;20190;-63
2021/08/12 00:22:40;;;;;;;22.17;19.87;;;14.40;99.90;;;;;;5030655;28;20908;-62
2021/08/12 00:25:07;;;;;;;22.10;20.10;;;14.40;99.90;;;;;;5029403;28;20195;-59
2021/08/12 00:27:33;;;;;;;22.30;20.17;;;14.40;99.90;;;;;;5028990;28;20527;-60
2021/08/12 00:29:58;;;;;;;21.43;19.53;;;14.40;99.90;;;;;;5028916;28;20437;-59
2021/08/12 00:32:24;;;;;;;21.70;19.67;;;14.40;99.90;;;;;;5030158;28;20652;-59
2021/08/12 00:34:49;;;;;;;23.20;20.90;;;14.40;99.90;;;;;;5030099;28;20335;-60
2021/08/12 00:37:15;;;;;;;22.37;20.27;;;14.40;99.90;;;;;;5029714;28;20186;-60
2021/08/12 00:39:40;;;;;;;22.87;20.67;;;14.30;99.90;;;;;;5029788;28;20191;-59
2021/08/12 00:42:06;;;;;;;21.53;19.53;;;14.40;99.90;;;;;;5028976;28;21274;-61
2021/08/12 00:44:32;;;;;;;22.57;20.47;;;14.40;99.90;;;;;;5030379;28;20202;-59
2021/08/12 00:46:57;;;;;;;23.07;20.73;;;14.30;99.90;;;;;;5027655;28;20661;-60
2021/08/12 00:49:23;;;;;;;23.57;21.37;;;14.30;99.90;;;;;;5030113;28;20861;-60
2021/08/12 00:51:48;;;;;;;21.77;19.87;;;14.30;99.90;;;;;;5029669;28;20603;-60
2021/08/12 00:54:15;;;;;;;21.93;19.87;;;14.30;99.90;;;;;;5025781;28;20180;-61
2021/08/12 00:56:42;;;;;;;22.30;20.40;;;14.20;99.90;;;;;;5028172;28;21452;-56
2021/08/12 00:59:07;;;;;;;23.13;21.03;;;14.20;99.90;;;;;;5028692;28;20456;-60
2021/08/12 01:01:33;;;;;;;21.93;19.80;;;14.20;99.90;;;;;;5029299;28;21152;-60
2021/08/12 01:04:02;;;;;;;23.43;21.33;;;14.10;99.90;;;;;;5029320;28;20305;-59
2021/08/12 01:06:31;;;;;;;23.17;20.97;;;14.10;99.90;;;;;;5029243;28;20198;-59
2021/08/12 01:09:12;;;;;;;23.50;21.10;;;14.10;99.90;;;;;;5028215;28;20487;-61
2021/08/12 01:11:48;;;;;;;24.77;22.37;;;14.00;99.90;;;;;;5026991;28;20433;-61
2021/08/12 01:14:37;;;;;;;24.93;22.53;;;14.00;99.90;;;;;;5024475;28;20445;-59
2021/08/12 01:17:07;;;;;;;25.00;22.60;;;13.90;99.90;;;;;;5029055;28;20426;-60
2021/08/12 01:19:32;;;;;;;24.10;21.80;;;14.00;99.90;;;;;;5029042;28;20430;-59
2021/08/12 01:22:01;;;;;;;25.03;22.73;;;14.00;99.90;;;;;;5027461;28;20449;-59
2021/08/12 01:24:31;;;;;;;24.87;22.50;;;14.00;99.90;;;;;;5028982;28;20206;-60
2021/08/12 01:27:02;;;;;;;24.90;22.50;;;13.90;99.90;;;;;;5028412;28;20479;-62
2021/08/12 01:29:52;;;;;;;25.83;23.37;;;13.90;99.90;;;;;;5027216;28;20442;-59
2021/08/12 01:32:24;;;;;;;24.80;22.30;;;13.90;99.90;;;;;;5026648;28;20441;-60
2021/08/12 01:35:06;;;;;;;25.20;22.90;;;13.90;99.90;;;;;;5029173;28;20437;-57
2021/08/12 01:37:42;;;;;;;25.93;23.53;;;13.90;99.90;;;;;;5032137;28;20433;-59
2021/08/12 01:40:11;;;;;;;25.27;22.60;;;13.90;99.90;;;;;;5028735;28;20483;-58
2021/08/12 01:42:38;;;;;;;25.93;21.87;;;13.90;99.90;;;;;;5028216;28;20528;-60
2021/08/12 01:45:05;;;;;;;24.00;21.70;;;13.90;99.90;;;;;;5026753;28;20865;-60
2021/08/12 01:47:32;;;;;;;23.80;21.40;;;13.80;99.90;;;;;;5028011;28;20429;-60
2021/08/12 01:50:01;;;;;;;24.80;22.37;;;13.80;99.90;;;;;;5028510;28;20413;-61
2021/08/12 01:52:28;;;;;;;25.17;22.77;;;13.80;99.90;;;;;;5029950;28;21125;-58
2021/08/12 01:54:55;;;;;;;23.90;21.50;;;13.80;99.90;;;;;;5026977;28;21138;-59
2021/08/12 01:57:20;;;;;;;25.27;22.77;;;13.70;99.90;;;;;;5028314;28;20437;-59
2021/08/12 01:59:47;;;;;;;25.43;22.93;;;13.70;99.90;;;;;;5027097;28;20433;-58
2021/08/12 02:02:14;;;;;;;24.80;22.47;;;13.70;99.90;;;;;;5028671;28;20205;-60
2021/08/12 02:04:41;;;;;;;25.60;23.10;;;13.70;99.90;;;;;;5028203;28;20952;-59
2021/08/12 02:07:11;;;;;;;25.47;23.00;;;13.70;99.90;;;;;;5025974;28;20452;-59
2021/08/12 02:09:37;;;;;;;25.67;23.17;;;13.60;99.90;;;;;;5029024;28;20540;-60
2021/08/12 02:12:03;;;;;;;25.30;22.90;;;13.70;99.90;;;;;;5025741;28;21483;-60
2021/08/12 02:14:32;;;;;;;26.10;23.40;;;13.60;99.90;;;;;;5034082;28;20230;-59
2021/08/12 02:16:57;;;;;;;25.70;23.10;;;13.60;99.90;;;;;;5034695;28;20448;-60
2021/08/12 02:19:23;;;;;;;25.33;22.93;;;13.60;99.90;;;;;;5027308;28;20441;-60
2021/08/12 02:21:56;;;;;;;25.80;23.30;;;13.60;99.90;;;;;;5027582;28;20644;-60
2021/08/12 02:24:43;;;;;;;24.63;22.03;;;13.60;99.90;;;;;;5026681;28;20314;-60
2021/08/12 02:27:12;;;;;;;25.17;22.67;;;13.50;99.90;;;;;;5025915;28;20429;-57
2021/08/12 02:29:38;;;;;;;26.30;23.53;;;13.50;99.90;;;;;;5026555;28;20433;-58
2021/08/12 02:32:08;;;;;;;26.47;23.93;;;13.50;99.90;;;;;;5028254;28;20434;-57
2021/08/12 02:34:35;;;;;;;25.27;22.87;;;13.50;99.90;;;;;;5027206;28;20445;-59
2021/08/12 02:37:05;;;;;;;25.73;23.23;;;13.40;99.90;;;;;;5027544;28;20735;-60
2021/08/12 02:39:34;;;;;;;25.60;23.00;;;13.40;99.90;;;;;;5026820;28;20448;-61
2021/08/12 02:42:02;;;;;;;26.97;24.30;;;13.40;99.90;;;;;;5026442;28;20445;-58
2021/08/12 02:44:29;;;;;;;26.07;23.43;;;13.40;99.90;;;;;;5022260;28;20581;-59
2021/08/12 02:46:58;;;;;;;25.40;23.00;;;13.40;99.90;;;;;;5027651;28;20904;-60
2021/08/12 02:49:27;;;;;;;25.93;23.43;;;13.30;99.90;;;;;;5025498;28;20452;-58
2021/08/12 02:51:53;;;;;;;26.50;23.90;;;13.30;99.90;;;;;;5027128;28;20441;-61
2021/08/12 02:54:20;;;;;;;27.20;24.60;;;13.30;99.90;;;;;;5028533;28;20978;-60
2021/08/12 02:56:46;;;;;;;26.57;24.13;;;13.30;99.90;;;;;;5027584;28;20507;-59
2021/08/12 02:59:14;;;;;;;26.53;23.83;;;13.30;99.90;;;;;;5023864;28;20448;-59
2021/08/12 03:01:40;;;;;;;25.60;23.10;;;13.30;99.90;;;;;;5028377;28;20564;-59
2021/08/12 03:04:07;;;;;;;27.60;25.00;;;13.30;99.90;;;;;;5025528;28;20530;-59
2021/08/12 03:06:33;;;;;;;26.97;24.37;;;13.30;99.90;;;;;;5027254;28;20503;-60
2021/08/12 03:08:59;;;;;;;26.63;23.93;;;13.30;99.90;;;;;;5027467;28;20442;-60
2021/08/12 03:11:25;;;;;;;26.47;23.70;;;13.30;99.90;;;;;;5028814;28;20417;-60
2021/08/12 03:13:53;;;;;;;24.83;22.33;;;13.30;99.90;;;;;;5026753;28;20453;-60
2021/08/12 03:16:19;;;;;;;27.77;24.97;;;13.30;99.90;;;;;;5030682;28;20191;-60
2021/08/12 03:18:45;;;;;;;25.80;23.30;;;13.20;99.90;;;;;;5030122;28;20498;-58
2021/08/12 03:21:13;;;;;;;25.37;22.83;;;13.20;99.90;;;;;;5030149;28;20433;-59
2021/08/12 03:23:40;;;;;;;26.77;24.17;;;13.20;99.90;;;;;;5031374;28;20250;-59
2021/08/12 03:26:06;;;;;;;25.30;22.60;;;13.20;99.90;;;;;;5029357;28;20591;-60
2021/08/12 03:28:32;;;;;;;26.37;23.70;;;13.20;99.90;;;;;;5030037;28;20449;-58
2021/08/12 03:30:58;;;;;;;25.83;23.20;;;13.20;99.90;;;;;;5029795;28;20433;-59
2021/08/12 03:33:25;;;;;;;26.70;24.03;;;13.20;99.90;;;;;;5031537;28;20446;-60
2021/08/12 03:35:51;;;;;;;26.43;23.93;;;13.10;99.90;;;;;;5030750;28;20943;-60
2021/08/12 03:38:17;;;;;;;26.50;23.83;;;13.10;99.90;;;;;;5030270;28;20532;-60
2021/08/12 03:40:42;;;;;;;26.70;24.03;;;13.10;99.90;;;;;;5029957;28;20524;-60
2021/08/12 03:43:08;;;;;;;28.27;25.37;;;13.10;99.90;;;;;;5029367;28;21081;-60
2021/08/12 03:45:33;;;;;;;26.70;24.10;;;13.00;99.90;;;;;;5030441;28;20193;-59
2021/08/12 03:47:59;;;;;;;24.93;22.60;;;13.00;99.90;;;;;;5030002;28;20202;-60
2021/08/12 03:50:25;;;;;;;27.40;24.60;;;13.00;99.90;;;;;;5031373;28;20252;-59
2021/08/12 03:52:50;;;;;;;27.27;24.70;;;13.00;99.90;;;;;;5028820;28;20183;-59
2021/08/12 03:55:16;;;;;;;26.90;24.10;;;13.00;99.90;;;;;;5030936;28;20199;-59
2021/08/12 03:57:42;;;;;;;25.87;23.37;;;13.00;99.90;;;;;;5029680;28;20222;-61
2021/08/12 04:00:09;;;;;;;27.30;24.33;;;13.00;99.90;;;;;;5030562;28;20222;-59
2021/08/12 04:02:35;;;;;;;27.20;24.47;;;13.00;99.90;;;;;;5029912;28;20515;-59
2021/08/12 04:05:00;;;;;;;27.10;24.47;;;13.00;99.90;;;;;;5027675;28;20457;-59
2021/08/12 04:07:26;;;;;;;26.97;24.37;;;13.00;99.90;;;;;;5030023;28;20187;-59
2021/08/12 04:09:51;;;;;;;26.67;24.07;;;13.00;99.90;;;;;;5030094;28;20189;-59
2021/08/12 04:12:17;;;;;;;27.17;24.47;;;13.10;99.90;;;;;;5029336;28;20191;-60
2021/08/12 04:14:42;;;;;;;26.37;23.77;;;13.00;99.90;;;;;;5035550;28;20888;-60
2021/08/12 04:17:08;;;;;;;28.03;25.33;;;13.10;99.90;;;;;;5021967;28;20197;-60
2021/08/12 04:19:34;;;;;;;26.23;23.73;;;13.10;99.90;;;;;;5021629;28;20191;-59
2021/08/12 04:21:59;;;;;;;27.43;24.83;;;13.00;99.90;;;;;;5021843;28;20244;-59
2021/08/12 04:24:26;;;;;;;25.57;23.17;;;13.10;99.90;;;;;;5019558;28;20242;-60
2021/08/12 04:26:52;;;;;;;26.67;24.10;;;13.00;99.90;;;;;;5020212;28;20210;-60
2021/08/12 04:29:17;;;;;;;27.37;24.67;;;13.00;99.90;;;;;;5018971;28;20528;-57
2021/08/12 04:31:43;;;;;;;26.60;24.10;;;13.00;99.90;;;;;;5022238;28;20187;-59
2021/08/12 04:34:08;;;;;;;27.77;25.07;;;13.00;99.90;;;;;;5034292;28;20183;-59
2021/08/12 04:36:34;;;;;;;26.60;23.90;;;13.00;99.90;;;;;;5022921;28;20183;-60
2021/08/12 04:39:00;;;;;;;27.20;24.40;;;13.00;99.90;;;;;;5030239;28;20187;-59
2021/08/12 04:41:25;;;;;;;26.67;24.07;;;13.00;99.90;;;;;;5029982;28;20197;-59
2021/08/12 04:43:51;;;;;;;26.53;23.83;;;13.00;99.90;;;;;;5031152;28;20203;-59
2021/08/12 04:46:16;;;;;;;26.47;23.87;;;13.10;99.90;;;;;;5030811;28;20187;-59
2021/08/12 04:48:42;;;;;;;25.33;22.73;;;13.10;99.90;;;;;;5030049;28;20229;-61
2021/08/12 04:51:07;;;;;;;25.03;22.60;;;13.10;99.90;;;;;;5029821;28;20187;-59
2021/08/12 04:53:33;;;;;;;25.33;22.83;;;13.10;99.90;;;;;;5029699;28;20653;-59
2021/08/12 04:55:58;;;;;;;24.37;21.97;;;13.20;99.90;;;;;;5029278;28;20182;-59
2021/08/12 04:58:24;;;;;;;25.17;22.50;;;13.20;99.90;;;;;;5030454;28;20294;-59
2021/08/12 05:00:50;;;;;;;24.80;22.20;;;13.20;99.90;;;;;;5029195;28;20258;-60
2021/08/12 05:03:15;;;;;;;24.63;22.23;;;13.20;99.90;;;;;;5030605;28;20554;-60
2021/08/12 05:05:41;;;;;;;24.40;21.83;;;13.30;99.90;;;;;;5029010;28;20176;-60
2021/08/12 05:08:06;;;;;;;25.63;23.07;;;13.40;99.90;;;;;;5030400;28;20261;-59
2021/08/12 05:10:32;;;;;;;23.80;21.50;;;13.40;99.90;;;;;;5029445;28;20182;-60
2021/08/12 05:12:57;;;;;;;25.00;22.50;;;13.50;99.90;;;;;;5030275;28;20276;-60
2021/08/12 05:15:23;;;;;;;23.40;21.10;;;13.50;99.90;;;;;;5028272;28;20190;-60
2021/08/12 05:17:49;;;;;;;23.00;20.70;;;13.50;99.90;;;;;;5022884;28;20202;-61
2021/08/12 05:20:14;;;;;;;23.70;21.40;;;13.50;99.90;;;;;;5029483;28;20265;-61
2021/08/12 05:22:40;;;;;;;23.93;21.63;;;13.50;99.90;;;;;;5028034;28;20174;-60
2021/08/12 05:25:06;;;;;;;23.63;21.40;;;13.60;99.90;;;;;;5029431;28;20198;-59
2021/08/12 05:27:32;;;;;;;24.40;21.93;;;13.70;99.90;;;;;;5028333;28;20175;-60
2021/08/12 05:29:57;;;;;;;23.03;20.63;;;13.70;99.90;;;;;;5024654;28;20440;-60
2021/08/12 05:32:23;;;;;;;22.37;20.23;;;13.80;99.90;;;;;;5027207;28;20421;-60
2021/08/12 05:34:49;;;;;;;21.50;19.40;;;13.80;99.90;;;;;;5028608;28;20396;-60
2021/08/12 05:37:14;;;;;;;22.87;20.73;;;13.90;99.90;;;;;;5028996;28;20683;-59
2021/08/12 05:39:40;;;;;;;21.17;19.27;;;13.90;99.90;;;;;;5029450;28;20187;-59
2021/08/12 05:42:05;;;;;;;21.57;19.67;;;14.00;99.90;;;;;;5028454;28;20187;-60
2021/08/12 05:44:31;;;;;;;21.30;19.40;;;14.10;99.90;;;;;;5026960;28;20344;-61
2021/08/12 05:46:56;;;;;;;22.10;20.00;;;14.20;99.90;;;;;;5027323;28;20260;-60
2021/08/12 05:49:23;;;;;;;19.70;17.80;;;14.30;99.90;;;;;;5028871;28;20328;-60
2021/08/12 05:51:50;;;;;;;19.10;17.17;;;14.40;99.90;;;;;;5026756;28;20281;-60
2021/08/12 05:54:16;;;;;;;19.83;18.03;;;14.60;99.90;;;;;;5027918;28;20457;-59
2021/08/12 05:56:41;;;;;;;20.33;18.23;;;14.60;99.90;;;;;;5028221;28;21152;-60
2021/08/12 05:59:07;;;;;;;19.03;17.33;;;14.70;99.90;;;;;;5028328;28;20585;-59
2021/08/12 06:01:33;;;;;;;18.73;16.93;;;14.80;99.90;;;;;;5028216;28;20234;-60
2021/08/12 06:03:59;;;;;;;19.00;17.30;;;14.90;99.90;;;;;;5029922;28;20219;-60
2021/08/12 06:06:24;;;;;;;18.60;17.00;;;14.90;99.90;;;;;;5021943;28;21003;-61
2021/08/12 06:08:50;;;;;;;18.77;16.97;;;15.00;99.90;;;;;;5028429;28;20435;-59
2021/08/12 06:11:15;;;;;;;17.60;16.00;;;15.10;99.90;;;;;;5026749;28;20198;-59
2021/08/12 06:13:41;;;;;;;18.77;17.07;;;15.20;99.90;;;;;;5029123;28;20981;-58
2021/08/12 06:16:07;;;;;;;18.43;16.83;;;15.30;97.70;;;;;;5028658;28;20190;-60
2021/08/12 06:18:32;;;;;;;17.50;15.90;;;15.30;94.20;;;;;;5032898;28;20221;-60
2021/08/12 06:20:58;;;;;;;17.93;16.30;;;15.40;89.80;;;;;;5028351;28;20248;-59
2021/08/12 06:23:24;;;;;;;17.87;16.30;;;15.50;82.40;;;;;;5031926;28;20191;-60
2021/08/12 06:25:49;;;;;;;17.70;16.10;;;15.60;84.70;;;;;;5027572;28;20191;-59
2021/08/12 06:28:15;;;;;;;17.53;15.80;;;15.60;86.10;;;;;;5026872;28;20210;-58
2021/08/12 06:30:41;;;;;;;17.37;15.53;;;15.70;80.50;;;;;;5026129;28;20183;-60
2021/08/12 06:33:07;;;;;;;16.80;15.30;;;15.90;74.00;;;;;;5025419;28;20179;-59
2021/08/12 06:35:34;;;;;;;17.20;15.70;;;16.00;72.90;;;;;;5027763;28;20266;-59
2021/08/12 06:38:00;;;;;;;16.57;15.07;;;16.20;66.10;;;;;;5026731;28;20928;-60
2021/08/12 06:40:27;;;;;;;17.20;15.70;;;16.30;44.60;;;;;;5026188;28;20776;-60
2021/08/12 06:42:53;;;;;;;15.90;14.37;;;16.40;36.40;;;;;;5025280;28;20437;-56
2021/08/12 06:45:20;;;;;;;15.97;14.60;;;16.40;29.80;;;;;;5026613;28;20461;-59
2021/08/12 06:47:48;;;;;;;15.70;14.40;;;16.40;34.40;;;;;;5026605;28;20419;-60
2021/08/12 06:50:14;;;;;;;15.57;14.27;;;16.50;34.30;;;;;;5028232;28;20441;-60
2021/08/12 06:52:40;;;;;;;16.37;14.97;;;16.60;31.80;;;;;;5031588;28;20488;-59
2021/08/12 06:55:06;;;;;;;16.90;15.50;;;16.70;27.80;;;;;;5031788;28;20512;-59
2021/08/12 06:57:32;;;;;;;15.60;14.20;;;16.80;26.70;;;;;;5031743;28;20241;-59
2021/08/12 06:59:57;;;;;;;15.53;14.27;;;16.90;28.00;;;;;;5030568;28;21312;-60
2021/08/12 07:02:23;;;;;;;15.90;14.40;;;17.10;17.10;;;;;;5031846;28;20191;-59
2021/08/12 07:04:48;;;;;;;13.60;12.40;;;17.20;11.90;;;;;;5031704;28;20205;-60
2021/08/12 07:07:14;;;;;;;14.93;13.63;;;17.20;1.00;;;;;;5031488;28;20254;-60
2021/08/12 07:09:40;;;;;;;15.43;14.13;;;17.30;1.00;;;;;;5030493;28;20206;-59
2021/08/12 07:12:07;;;;;;;14.00;12.80;;;17.50;1.00;;;;;;5032167;28;20222;-59
2021/08/12 07:14:32;;;;;;;14.97;13.67;;;17.70;1.00;;;;;;5031084;28;20449;-60
2021/08/12 07:16:58;;;;;;;14.70;13.47;;;17.80;1.00;;;;;;5040244;28;20432;-59
2021/08/12 07:19:25;;;;;;;13.90;12.80;;;17.90;1.00;;;;;;5030263;28;20648;-57
2021/08/12 07:21:53;;;;;;;13.70;12.60;;;18.00;1.00;;;;;;5029876;28;20298;-59
2021/08/12 07:24:19;;;;;;;15.53;12.80;;;18.10;1.00;;;;;;5031350;28;20475;-59
2021/08/12 07:26:47;;;;;;;12.70;11.70;;;18.30;1.00;;;;;;5031182;28;20435;-59
2021/08/12 07:29:16;;;;;;;11.90;11.00;;;18.50;1.00;;;;;;5031345;28;20458;-59
2021/08/12 07:31:42;;;;;;;12.20;11.30;;;18.60;1.00;;;;;;5031533;28;20413;-60
2021/08/12 07:34:08;;;;;;;12.67;11.67;;;18.60;1.00;;;;;;5029954;28;20448;-58
2021/08/12 07:36:35;;;;;;;12.70;11.70;;;18.70;1.00;;;;;;5031427;28;20787;-60
2021/08/12 07:39:01;;;;;;;12.87;11.87;;;18.80;1.00;;;;;;5031036;28;20216;-60
2021/08/12 07:41:26;;;;;;;12.93;11.77;;;18.90;1.00;;;;;;5030476;28;20443;-59
2021/08/12 07:43:52;;;;;;;12.23;11.23;;;19.00;1.00;;;;;;5030781;28;20493;-59
2021/08/12 07:46:17;;;;;;;12.50;11.60;;;19.20;1.00;;;;;;5031355;28;20201;-59
2021/08/12 07:48:43;;;;;;;12.80;11.80;;;19.30;1.00;;;;;;5030064;28;20634;-60
2021/08/12 07:51:09;;;;;;;13.53;12.43;;;19.60;1.00;;;;;;5030954;28;20633;-60
2021/08/12 07:53:34;;;;;;;13.17;12.03;;;19.70;1.00;;;;;;5029055;28;20236;-60
2021/08/12 07:56:00;;;;;;;12.90;11.80;;;19.70;1.00;;;;;;5029913;28;20941;-59
2021/08/12 07:58:26;;;;;;;12.27;11.37;;;19.80;1.00;;;;;;5028919;28;20188;-60
2021/08/12 08:00:53;;;;;;;11.57;10.67;;;20.00;1.00;;;;;;5028406;28;20474;-60
2021/08/12 08:03:19;;;;;;;12.03;11.03;;;20.20;1.00;;;;;;5030029;28;20290;-60
2021/08/12 08:05:44;;;;;;;12.07;11.07;;;20.40;1.00;;;;;;5030503;28;20418;-60
2021/08/12 08:08:10;;;;;;;11.47;10.60;;;20.60;99.90;;;;;;5029275;28;20499;-59
2021/08/12 08:10:36;;;;;;;11.87;10.97;;;20.80;99.90;;;;;;5030217;28;20595;-60
2021/08/12 08:13:01;;;;;;;11.57;10.67;;;21.10;1.00;;;;;;5028267;28;20270;-59
2021/08/12 08:15:27;;;;;;;11.17;10.37;;;21.20;1.00;;;;;;5027166;28;20193;-59
2021/08/12 08:17:52;;;;;;;10.13;9.30;;;21.30;1.00;;;;;;5029780;28;20199;-60
2021/08/12 08:20:19;;;;;;;9.67;8.97;;;21.40;1.00;;;;;;5030297;28;20223;-59
2021/08/12 08:22:45;;;;;;;10.40;9.70;;;21.60;1.00;;;;;;5029670;28;20194;-59
2021/08/12 08:25:11;;;;;;;10.73;9.80;;;21.80;1.00;;;;;;5030202;28;20465;-60
2021/08/12 08:27:37;;;;;;;11.33;10.53;;;21.90;99.90;;;;;;5026165;28;20444;-59
2021/08/12 08:30:03;;;;;;;11.83;10.83;;;22.00;99.90;;;;;;5029824;28;20822;-60
2021/08/12 08:32:29;;;;;;;11.00;10.20;;;22.20;1.00;;;;;;5030482;28;20762;-58
2021/08/12 08:34:55;;;;;;;10.73;9.93;;;22.40;1.00;;;;;;5029093;28;20419;-59
2021/08/12 08:37:21;;;;;;;11.43;10.33;;;22.60;1.00;;;;;;5028628;28;21013;-60
2021/08/12 08:39:46;;;;;;;9.60;8.80;;;22.80;99.90;;;;;;5030470;28;20260;-60
2021/08/12 08:42:12;;;;;;;9.60;8.90;;;23.00;60.50;;;;;;5030123;28;20466;-60
2021/08/12 08:44:40;;;;;;;8.20;7.60;;;23.20;99.90;;;;;;5030191;28;20232;-60
2021/08/12 08:47:08;;;;;;;8.77;8.17;;;23.50;1.00;;;;;;5028208;28;20190;-60
2021/08/12 08:49:36;;;;;;;8.47;7.77;;;23.80;1.00;;;;;;5029936;28;20409;-60
2021/08/12 08:52:02;;;;;;;8.07;7.53;;;24.00;1.00;;;;;;5029699;28;21271;-60
2021/08/12 08:54:28;;;;;;;8.13;7.53;;;24.30;1.00;;;;;;5028667;28;20524;-61
2021/08/12 08:56:54;;;;;;;8.30;7.80;;;24.50;1.00;;;;;;5030430;28;20425;-61
2021/08/12 08:59:20;;;;;;;8.63;7.93;;;24.90;1.00;;;;;;5028940;28;20956;-61
2021/08/12 09:01:45;;;;;;;8.07;7.50;;;25.40;1.00;;;;;;5028665;28;20581;-60
2021/08/12 09:04:13;;;;;;;8.30;7.70;;;25.80;1.00;;;;;;5030081;28;20208;-60
2021/08/12 09:06:39;;;;;;;8.00;7.50;;;26.30;1.00;;;;;;5027464;28;20260;-59
2021/08/12 09:09:04;;;;;;;8.53;7.93;;;26.60;1.00;;;;;;5028351;28;21048;-59
2021/08/12 09:11:30;;;;;;;8.00;7.50;;;27.00;1.00;;;;;;5024255;28;20183;-61
2021/08/12 09:13:55;;;;;;;8.00;7.20;;;27.60;99.90;;;;;;5023566;28;20197;-60
2021/08/12 09:16:33;;;;;;;8.00;7.43;;;28.10;99.90;;;;;;5035288;28;20193;-61
2021/08/12 09:19:20;;;;;;;7.53;7.13;;;28.60;99.90;;;;;;5031777;28;20190;-60
2021/08/12 09:21:56;;;;;;;8.43;7.93;;;29.40;99.90;;;;;;5028216;28;20419;-59
2021/08/12 09:24:22;;;;;;;7.50;7.10;;;30.00;99.90;;;;;;5023187;28;21122;-60
2021/08/12 09:26:48;;;;;;;6.97;6.67;;;30.60;99.90;;;;;;5027287;28;20441;-60
2021/08/12 09:29:27;;;;;;;6.63;6.33;;;31.30;99.90;;;;;;5025652;28;20190;-60
2021/08/12 09:32:02;;;;;;;6.90;6.50;;;32.20;99.90;;;;;;5025535;28;20723;-60
2021/08/12 09:34:46;;;;;;;6.27;5.97;;;32.60;99.90;;;;;;5027518;28;20429;-60
2021/08/12 09:37:11;;;;;;;6.53;6.20;;;32.70;99.90;;;;;;5027658;28;20441;-60
2021/08/12 09:39:39;;;;;;;6.10;5.80;;;33.00;99.90;;;;;;5029380;28;20457;-60
2021/08/12 09:42:05;;;;;;;7.40;7.10;;;33.10;99.90;;;;;;5027612;28;20591;-60
2021/08/12 09:44:33;;;;;;;7.57;7.17;;;33.40;99.90;;;;;;5029236;28;20553;-60
2021/08/12 09:47:01;;;;;;;9.17;8.67;;;34.00;99.90;;;;;;5028590;28;20433;-60
2021/08/12 09:49:36;;;;;;;7.70;7.30;;;34.00;99.90;;;;;;5028431;28;20991;-61
2021/08/12 09:52:28;;;;;;;7.10;6.80;;;33.90;99.90;;;;;;5029000;28;20471;-61
2021/08/12 09:55:03;;;;;;;7.50;7.10;;;33.80;99.90;;;;;;5027733;28;20845;-60
2021/08/12 09:57:47;;;;;;;7.40;7.10;;;33.50;99.90;;;;;;5028412;28;20516;-60
2021/08/12 10:00:25;;;;;;;7.57;7.17;;;33.80;99.90;;;;;;5027760;28;20495;-59
2021/08/12 10:02:51;;;;;;;7.33;6.93;;;34.10;99.90;;;;;;5025537;28;20425;-60
2021/08/12 10:05:17;;;;;;;8.23;7.73;;;34.10;99.90;;;;;;5027563;28;20472;-60
2021/08/12 10:07:46;;;;;;;7.13;6.73;;;34.50;99.90;;;;;;5025150;28;20421;-60
2021/08/12 10:10:13;;;;;;;7.90;7.40;;;34.00;99.90;;;;;;5027057;28;20171;-60
2021/08/12 10:12:46;;;;;;;7.40;7.00;;;34.00;99.90;;;;;;5027101;28;20430;-60
2021/08/12 10:15:13;;;;;;;8.50;7.77;;;34.30;99.90;;;;;;5014672;28;20439;-60
2021/08/12 10:17:42;;;;;;;7.53;7.03;;;34.40;99.90;;;;;;5019143;28;20783;-60
2021/08/12 10:20:42;;;;;;;7.97;7.50;;;34.20;99.90;;;;;;5020584;28;20426;-60
2021/08/12 10:23:07;;;;;;;7.53;7.20;;;34.10;99.90;;;;;;5018431;28;20530;-59
2021/08/12 10:25:36;;;;;;;8.10;7.60;;;33.80;99.90;;;;;;5014644;28;21332;-59
2021/08/12 10:28:07;;;;;;;8.20;7.80;;;33.70;99.90;;;;;;5022128;28;20179;-60
2021/08/12 10:30:33;;;;;;;8.17;7.67;;;33.70;99.90;;;;;;5023982;28;20503;-61
2021/08/12 10:33:01;;;;;;;8.37;7.87;;;33.70;99.90;;;;;;5025600;28;20430;-61
2021/08/12 10:35:29;;;;;;;7.47;7.07;;;33.80;99.90;;;;;;5024951;28;20888;-62
2021/08/12 10:37:55;;;;;;;7.70;7.20;;;34.30;99.90;;;;;;5025815;28;20458;-61
2021/08/12 10:40:26;;;;;;;11.07;10.47;;;34.80;99.90;;;;;;5024920;28;20426;-62
2021/08/12 10:42:53;;;;;;;7.90;7.50;;;35.00;99.90;;;;;;5022521;28;20425;-62
2021/08/12 10:45:21;;;;;;;8.00;7.50;;;35.20;99.90;;;;;;5022228;28;20474;-61
2021/08/12 10:47:53;;;;;;;7.90;7.43;;;34.70;99.90;;;;;;5024227;28;20426;-61
2021/08/12 10:50:22;;;;;;;7.90;7.30;;;34.00;99.90;;;;;;5024602;28;20418;-62
2021/08/12 10:53:17;;;;;;;7.40;7.00;;;34.30;99.90;;;;;;5023030;28;20495;-61
2021/08/12 10:56:05;;;;;;;7.70;7.30;;;34.90;99.90;;;;;;5015702;28;20430;-61
2021/08/12 10:58:30;;;;;;;7.33;6.93;;;35.10;99.90;;;;;;5021037;28;20402;-61
2021/08/12 11:00:58;;;;;;;7.47;7.07;;;34.90;99.90;;;;;;5022550;28;20493;-62
2021/08/12 11:03:32;;;;;;;7.40;7.10;;;34.90;99.90;;;;;;5025326;28;20283;-63
2021/08/12 11:06:05;;;;;;;7.90;7.40;;;35.10;99.90;;;;;;5020205;28;20528;-61
2021/08/12 11:08:49;;;;;;;7.73;7.23;;;35.50;99.90;;;;;;5025696;28;20457;-60
2021/08/12 11:11:21;;;;;;;7.30;6.90;;;35.40;99.90;;;;;;5022721;28;20876;-60
2021/08/12 11:13:47;;;;;;;8.20;7.70;;;35.30;99.90;;;;;;5023437;28;20603;-59
2021/08/12 11:16:13;;;;;;;7.60;7.20;;;35.80;99.90;;;;;;5016967;28;20425;-59
2021/08/12 11:18:46;;;;;;;8.17;7.47;;;35.70;99.90;;;;;;5024152;28;20434;-61
2021/08/12 11:21:30;;;;;;;8.40;8.00;;;35.80;99.90;;;;;;5023019;28;20167;-59
2021/08/12 11:24:03;;;;;;;7.97;7.57;;;35.70;99.90;;;;;;5024071;28;20463;-60
2021/08/12 11:26:41;;;;;;;7.97;7.57;;;35.70;99.90;;;;;;5021817;28;20475;-60
2021/08/12 11:29:29;;;;;;;7.83;7.33;;;36.30;99.90;;;;;;5026520;28;20431;-61
2021/08/12 11:31:56;;;;;;;7.93;7.43;;;36.70;99.90;;;;;;5018958;28;20479;-61
2021/08/12 11:34:42;;;;;;;7.63;7.13;;;36.70;99.90;;;;;;5027116;28;21106;-61
2021/08/12 11:37:12;;;;;;;7.63;7.23;;;37.10;99.90;;;;;;5022444;28;20402;-61
2021/08/12 11:40:02;;;;;;;7.63;7.13;;;37.70;99.90;;;;;;5027554;28;20441;-60
2021/08/12 11:42:31;;;;;;;8.60;8.10;;;37.90;99.90;;;;;;5026732;28;20917;-60
2021/08/12 11:45:12;;;;;;;7.97;7.50;;;37.60;99.90;;;;;;5026089;28;20441;-61
2021/08/12 11:47:39;;;;;;;8.33;7.77;;;37.70;99.90;;;;;;5023433;28;20426;-61
2021/08/12 11:50:11;;;;;;;7.80;7.40;;;38.10;99.90;;;;;;5026420;28;20448;-61
2021/08/12 11:52:41;;;;;;;7.87;7.47;;;38.50;99.90;;;;;;5027908;28;20429;-61
2021/08/12 11:55:14;;;;;;;7.63;7.23;;;38.90;99.90;;;;;;5021828;28;20491;-61
2021/08/12 11:57:54;;;;;;;8.60;8.20;;;39.60;99.90;;;;;;5023536;28;20429;-61
2021/08/12 12:00:29;;;;;;;7.77;7.17;;;39.60;99.90;;;;;;5029495;28;20465;-61
2021/08/12 12:02:57;;;;;;;8.20;7.80;;;39.80;99.90;;;;;;5030648;28;20430;-60
2021/08/12 12:05:25;;;;;;;8.17;7.57;;;39.70;99.90;;;;;;5022022;28;20418;-61
2021/08/12 12:07:56;;;;;;;7.67;7.30;;;39.60;99.90;;;;;;5015569;28;20897;-61
2021/08/12 12:10:28;;;;;;;7.97;7.57;;;39.00;99.90;;;;;;5015317;28;20505;-61
2021/08/12 12:13:06;;;;;;;7.80;7.40;;;39.70;99.90;;;;;;5030361;28;20417;-61
2021/08/12 12:15:37;;;;;;;8.67;8.27;;;39.60;99.90;;;;;;5033147;28;21038;-61
2021/08/12 12:18:03;;;;;;;7.70;7.30;;;39.80;99.90;;;;;;5050382;28;20412;-60
2021/08/12 12:20:29;;;;;;;7.13;6.73;;;40.30;99.90;;;;;;5036283;28;20465;-60
2021/08/12 12:22:59;;;;;;;7.53;7.13;;;40.60;99.90;;;;;;5033214;28;20429;-60
2021/08/12 12:25:24;;;;;;;7.83;7.43;;;41.30;99.90;;;;;;5040231;28;20484;-60
2021/08/12 12:27:50;;;;;;;8.03;7.63;;;41.80;99.90;;;;;;5030443;28;20452;-61
2021/08/12 12:30:17;;;;;;;8.07;7.67;;;40.90;99.90;;;;;;5026143;28;20248;-61
2021/08/12 12:32:44;;;;;;;8.37;7.87;;;41.10;99.90;;;;;;5030631;28;20218;-60
2021/08/12 12:35:11;;;;;;;8.10;7.70;;;41.10;99.90;;;;;;5029508;28;20476;-60
2021/08/12 12:37:40;;;;;;;7.90;7.50;;;41.10;99.90;;;;;;5030560;28;20421;-61
2021/08/12 12:40:09;;;;;;;8.73;8.27;;;40.70;99.90;;;;;;5029830;28;20422;-61